Time;durP1;ratioP1;P1;durP2;ratioP2;P2;SDS_P1;SDS_P2;PMS_P1;PMS_P2;Temp;Humidity;BMP_temperature;BMP_pressure;BME280_temperature;BME280_humidity;BME280_pressure;Samples;Min_cycle;Max_cycle;Signal;HPM_P1;HPM_P2
2022/12/07 00:01:08;;;;;;;12.38;7.20;;;;;;;;;;4982399;28;20043;-64
2022/12/07 00:03:36;;;;;;;14.32;8.80;;;;;;;;;;4983480;28;20137;-65
2022/12/07 00:06:03;;;;;;;13.85;8.57;;;;;;;;;;4983006;28;20042;-66
2022/12/07 00:08:29;;;;;;;14.13;8.38;;;;;;;;;;4982937;28;20455;-67
2022/12/07 00:10:55;;;;;;;14.25;8.05;;;;;;;;;;4983465;28;20068;-67
2022/12/07 00:13:20;;;;;;;12.52;8.27;;;;;;;;;;4982311;28;21004;-67
2022/12/07 00:15:46;;;;;;;12.23;7.40;;;;;;;;;;4983092;28;20046;-68
2022/12/07 00:18:11;;;;;;;14.27;8.95;;;;;;;;;;4981989;28;20045;-67
2022/12/07 00:20:36;;;;;;;10.68;7.38;;;;;;;;;;4983511;28;20919;-67
2022/12/07 00:23:02;;;;;;;12.63;8.10;;;;;;;;;;4983295;28;20108;-67
2022/12/07 00:25:28;;;;;;;11.48;7.47;;;;;;;;;;4982991;28;20046;-67
2022/12/07 00:27:56;;;;;;;12.35;7.55;;;;;;;;;;4982216;28;20415;-67
2022/12/07 00:30:22;;;;;;;18.85;8.45;;;;;;;;;;4982832;28;20050;-67
2022/12/07 00:32:47;;;;;;;10.07;7.25;;;;;;;;;;4997833;28;20046;-67
2022/12/07 00:35:13;;;;;;;10.43;6.47;;;;;;;;;;4983374;28;20669;-68
2022/12/07 00:37:38;;;;;;;10.38;7.38;;;;;;;;;;4982297;28;20538;-68
2022/12/07 00:40:05;;;;;;;14.23;8.10;;;;;;;;;;4982063;28;20082;-67
2022/12/07 00:42:30;;;;;;;10.82;6.63;;;;;;;;;;4982919;28;20103;-67
2022/12/07 00:44:56;;;;;;;10.98;7.38;;;;;;;;;;4983277;28;20038;-67
2022/12/07 00:47:21;;;;;;;9.80;7.28;;;;;;;;;;4982038;28;20979;-66
2022/12/07 00:49:46;;;;;;;11.65;7.90;;;;;;;;;;4982134;28;20065;-66
2022/12/07 00:52:12;;;;;;;9.85;6.32;;;;;;;;;;4982509;28;20137;-66
2022/12/07 00:54:37;;;;;;;11.07;7.28;;;;;;;;;;4983266;28;20046;-67
2022/12/07 00:57:03;;;;;;;10.60;7.45;;;;;;;;;;4982684;28;20041;-67
2022/12/07 00:59:28;;;;;;;11.80;7.50;;;;;;;;;;4981859;28;20550;-67
2022/12/07 01:01:53;;;;;;;11.98;7.68;;;;;;;;;;4981669;28;20081;-67
2022/12/07 01:04:19;;;;;;;12.20;8.02;;;;;;;;;;4981450;28;20057;-67
2022/12/07 01:06:44;;;;;;;13.38;7.45;;;;;;;;;;4982730;28;20070;-66
2022/12/07 01:09:10;;;;;;;12.68;8.13;;;;;;;;;;4982132;28;20038;-67
2022/12/07 01:11:35;;;;;;;11.55;7.50;;;;;;;;;;4980190;28;20173;-66
2022/12/07 01:14:01;;;;;;;12.77;7.85;;;;;;;;;;4981055;28;20042;-66
2022/12/07 01:16:29;;;;;;;9.52;6.80;;;;;;;;;;4979571;28;20656;-66
2022/12/07 01:18:56;;;;;;;13.30;8.30;;;;;;;;;;4980356;28;20054;-66
2022/12/07 01:21:29;;;;;;;16.08;8.32;;;;;;;;;;4979768;28;20057;-66
2022/12/07 01:23:57;;;;;;;12.27;7.40;;;;;;;;;;4981207;28;20073;-66
2022/12/07 01:26:24;;;;;;;12.07;8.00;;;;;;;;;;4982018;28;20109;-66
2022/12/07 01:28:51;;;;;;;13.73;7.88;;;;;;;;;;4981951;28;20056;-66
2022/12/07 01:31:20;;;;;;;11.27;7.28;;;;;;;;;;4980224;28;20054;-66
2022/12/07 01:33:48;;;;;;;12.10;7.82;;;;;;;;;;4980558;28;20071;-67
2022/12/07 01:36:18;;;;;;;11.27;7.55;;;;;;;;;;4982133;28;20993;-67
2022/12/07 01:38:45;;;;;;;15.35;8.52;;;;;;;;;;4981705;28;20225;-67
2022/12/07 01:41:11;;;;;;;11.25;8.20;;;;;;;;;;4981698;28;20046;-67
2022/12/07 01:43:36;;;;;;;13.15;8.18;;;;;;;;;;4981327;28;20482;-66
2022/12/07 01:46:03;;;;;;;12.05;7.15;;;;;;;;;;4980881;28;20385;-66
2022/12/07 01:48:41;;;;;;;13.25;7.55;;;;;;;;;;4981301;28;20574;-67
2022/12/07 01:51:13;;;;;;;13.13;8.02;;;;;;;;;;4981634;28;20053;-67
2022/12/07 01:53:43;;;;;;;14.13;8.07;;;;;;;;;;4981492;28;20046;-68
2022/12/07 01:56:12;;;;;;;12.05;7.63;;;;;;;;;;4980763;28;20046;-67
2022/12/07 01:58:38;;;;;;;13.48;7.90;;;;;;;;;;4980731;28;20072;-67
2022/12/07 02:01:04;;;;;;;14.40;8.65;;;;;;;;;;4981314;28;20498;-67
2022/12/07 02:03:38;;;;;;;14.13;8.43;;;;;;;;;;4981247;28;20380;-70
2022/12/07 02:06:05;;;;;;;16.85;8.43;;;;;;;;;;4981556;28;20121;-67
2022/12/07 02:08:31;;;;;;;11.57;7.57;;;;;;;;;;4979643;28;20510;-67
2022/12/07 02:10:56;;;;;;;12.52;8.65;;;;;;;;;;4981272;28;20064;-67
2022/12/07 02:13:30;;;;;;;15.27;8.40;;;;;;;;;;4981738;28;20042;-67
2022/12/07 02:16:42;;;;;;;12.63;8.35;;;;;;;;;;4981135;28;20054;-66
2022/12/07 02:19:19;;;;;;;12.50;8.25;;;;;;;;;;4944468;28;20102;-67
2022/12/07 02:21:54;;;;;;;11.73;7.82;;;;;;;;;;4980770;28;20052;-67
2022/12/07 02:24:40;;;;;;;12.40;7.47;;;;;;;;;;4975549;28;20108;-67
2022/12/07 02:27:33;;;;;;;14.40;8.90;;;;;;;;;;4995598;28;20092;-67
2022/12/07 02:30:18;;;;;;;13.27;8.45;;;;;;;;;;4977776;28;20046;-67
2022/12/07 02:32:52;;;;;;;14.70;8.20;;;;;;;;;;4980740;28;20046;-67
2022/12/07 02:35:32;;;;;;;12.90;7.70;;;;;;;;;;4981425;28;20145;-68
2022/12/07 02:38:13;;;;;;;11.50;6.70;;;;;;;;;;4980508;28;20108;-67
2022/12/07 02:41:11;;;;;;;12.10;7.47;;;;;;;;;;4980185;28;20411;-66
2022/12/07 02:43:42;;;;;;;10.40;6.88;;;;;;;;;;4974103;28;20046;-67
2022/12/07 02:46:11;;;;;;;11.77;7.88;;;;;;;;;;4980872;28;20050;-67
2022/12/07 02:48:39;;;;;;;12.07;8.20;;;;;;;;;;4980423;28;20881;-68
2022/12/07 02:51:04;;;;;;;12.63;7.80;;;;;;;;;;4980467;28;20062;-68
2022/12/07 02:53:42;;;;;;;10.48;6.95;;;;;;;;;;4980394;28;20049;-68
2022/12/07 02:56:26;;;;;;;11.57;8.02;;;;;;;;;;4986814;28;20052;-67
2022/12/07 02:59:07;;;;;;;13.25;7.43;;;;;;;;;;4986862;28;20659;-68
2022/12/07 03:02:00;;;;;;;13.27;8.20;;;;;;;;;;5000810;28;20455;-68
2022/12/07 03:04:51;;;;;;;12.10;7.70;;;;;;;;;;4987091;28;20050;-65
2022/12/07 03:07:39;;;;;;;12.13;7.57;;;;;;;;;;4987806;28;20054;-66
2022/12/07 03:10:25;;;;;;;11.93;8.05;;;;;;;;;;4984837;28;20499;-67
2022/12/07 03:12:56;;;;;;;14.80;8.70;;;;;;;;;;4986573;28;20046;-67
2022/12/07 03:15:32;;;;;;;15.10;7.80;;;;;;;;;;4987157;28;20061;-67
2022/12/07 03:18:00;;;;;;;12.70;7.68;;;;;;;;;;4984002;28;20125;-67
2022/12/07 03:20:28;;;;;;;13.32;8.18;;;;;;;;;;4987199;28;20047;-67
2022/12/07 03:22:54;;;;;;;13.40;7.85;;;;;;;;;;4987487;28;20125;-67
2022/12/07 03:25:20;;;;;;;10.98;7.55;;;;;;;;;;4986474;28;20054;-67
2022/12/07 03:27:49;;;;;;;13.77;8.13;;;;;;;;;;4986555;28;20027;-67
2022/12/07 03:30:20;;;;;;;14.70;8.25;;;;;;;;;;4987322;28;20077;-67
2022/12/07 03:32:57;;;;;;;16.75;8.65;;;;;;;;;;4987246;28;20046;-67
2022/12/07 03:35:39;;;;;;;11.20;7.50;;;;;;;;;;4986797;28;20077;-67
2022/12/07 03:38:12;;;;;;;13.02;8.55;;;;;;;;;;4983908;28;20057;-67
2022/12/07 03:40:49;;;;;;;10.98;7.80;;;;;;;;;;4987012;28;20042;-67
2022/12/07 03:43:16;;;;;;;14.82;8.23;;;;;;;;;;4987336;28;20136;-67
2022/12/07 03:45:46;;;;;;;15.18;7.95;;;;;;;;;;4985711;28;20499;-67
2022/12/07 03:49:07;;;;;;;12.32;7.68;;;;;;;;;;4986444;28;20050;-67
2022/12/07 03:51:54;;;;;;;14.55;8.60;;;;;;;;;;4932731;28;20056;-68
2022/12/07 03:54:26;;;;;;;17.33;8.57;;;;;;;;;;4987189;28;20145;-67
2022/12/07 03:56:53;;;;;;;15.20;8.77;;;;;;;;;;4986941;28;20583;-66
2022/12/07 03:59:19;;;;;;;13.30;8.32;;;;;;;;;;5001398;28;20054;-66
2022/12/07 04:01:53;;;;;;;14.13;8.57;;;;;;;;;;4986190;28;20065;-66
2022/12/07 04:04:18;;;;;;;13.20;8.73;;;;;;;;;;4986772;28;20077;-67
2022/12/07 04:06:44;;;;;;;13.43;8.68;;;;;;;;;;4983428;28;20130;-66
2022/12/07 04:09:09;;;;;;;15.88;8.40;;;;;;;;;;4982487;28;20042;-66
2022/12/07 04:11:35;;;;;;;12.82;8.63;;;;;;;;;;4983145;28;20109;-66
2022/12/07 04:14:18;;;;;;;13.40;8.48;;;;;;;;;;4984115;28;20133;-67
2022/12/07 04:16:58;;;;;;;14.95;9.13;;;;;;;;;;4982218;28;20104;-67
2022/12/07 04:19:28;;;;;;;13.23;8.70;;;;;;;;;;4981717;28;20080;-67
2022/12/07 04:21:55;;;;;;;14.23;8.13;;;;;;;;;;4983170;28;20405;-67
2022/12/07 04:24:21;;;;;;;17.63;9.38;;;;;;;;;;4982519;28;20124;-67
2022/12/07 04:26:47;;;;;;;14.02;8.93;;;;;;;;;;4983153;28;20038;-67
2022/12/07 04:29:14;;;;;;;14.43;9.30;;;;;;;;;;4981834;28;20490;-67
2022/12/07 04:31:39;;;;;;;14.73;9.02;;;;;;;;;;4982623;28;20050;-67
2022/12/07 04:34:06;;;;;;;14.35;9.52;;;;;;;;;;4982057;28;21050;-67
2022/12/07 04:36:32;;;;;;;13.40;8.45;;;;;;;;;;4983305;28;20471;-67
2022/12/07 04:38:57;;;;;;;13.75;8.70;;;;;;;;;;4982527;28;20069;-67
2022/12/07 04:41:26;;;;;;;13.80;8.65;;;;;;;;;;4982402;28;20042;-67
2022/12/07 04:44:01;;;;;;;14.05;8.77;;;;;;;;;;4982599;28;20527;-67
2022/12/07 04:46:28;;;;;;;13.50;8.38;;;;;;;;;;4983102;28;20050;-67
2022/12/07 04:48:54;;;;;;;15.25;8.90;;;;;;;;;;4982417;28;20097;-67
2022/12/07 04:51:23;;;;;;;16.00;9.20;;;;;;;;;;4980960;28;20062;-67
2022/12/07 04:53:48;;;;;;;15.45;9.15;;;;;;;;;;4982169;28;20118;-67
2022/12/07 04:56:15;;;;;;;15.27;9.80;;;;;;;;;;4982611;28;20053;-67
2022/12/07 04:58:42;;;;;;;15.07;9.57;;;;;;;;;;4982399;28;20489;-67
2022/12/07 05:01:08;;;;;;;14.90;9.18;;;;;;;;;;4981544;28;20137;-67
2022/12/07 05:03:35;;;;;;;14.75;9.23;;;;;;;;;;4982054;28;20146;-68
2022/12/07 05:06:00;;;;;;;14.77;9.57;;;;;;;;;;4981996;28;20057;-68
2022/12/07 05:08:26;;;;;;;15.57;9.93;;;;;;;;;;4997060;28;20034;-68
2022/12/07 05:10:52;;;;;;;15.63;10.18;;;;;;;;;;4993256;28;20065;-69
2022/12/07 05:13:17;;;;;;;17.42;10.30;;;;;;;;;;4981118;28;20034;-68
2022/12/07 05:15:43;;;;;;;18.30;11.02;;;;;;;;;;4980445;28;20605;-68
2022/12/07 05:18:12;;;;;;;16.25;9.55;;;;;;;;;;4980222;28;20459;-68
2022/12/07 05:20:41;;;;;;;14.65;9.50;;;;;;;;;;4981677;28;20038;-68
2022/12/07 05:23:07;;;;;;;19.52;10.25;;;;;;;;;;4982153;28;20054;-68
2022/12/07 05:25:33;;;;;;;15.68;10.32;;;;;;;;;;4980920;28;20053;-68
2022/12/07 05:27:59;;;;;;;15.52;10.35;;;;;;;;;;4981574;28;20065;-68
2022/12/07 05:30:25;;;;;;;15.20;10.57;;;;;;;;;;4982173;28;20116;-68
2022/12/07 05:32:51;;;;;;;16.13;10.27;;;;;;;;;;4980011;28;20062;-68
2022/12/07 05:35:17;;;;;;;16.77;10.13;;;;;;;;;;4980379;28;20058;-68
2022/12/07 05:37:43;;;;;;;15.10;10.43;;;;;;;;;;4994065;28;20136;-68
2022/12/07 05:40:09;;;;;;;17.60;10.88;;;;;;;;;;4980298;28;20447;-68
2022/12/07 05:42:35;;;;;;;17.55;11.30;;;;;;;;;;4981177;28;20054;-68
2022/12/07 05:45:00;;;;;;;18.90;11.57;;;;;;;;;;4980677;28;20061;-68
2022/12/07 05:47:26;;;;;;;20.88;11.32;;;;;;;;;;4978948;28;20082;-68
2022/12/07 05:49:51;;;;;;;17.38;11.30;;;;;;;;;;4979826;28;20500;-70
2022/12/07 05:52:17;;;;;;;17.77;11.15;;;;;;;;;;4981053;28;20076;-68
2022/12/07 05:54:43;;;;;;;23.35;10.60;;;;;;;;;;4980777;28;20078;-69
2022/12/07 05:57:08;;;;;;;19.98;10.70;;;;;;;;;;4980147;28;20042;-70
2022/12/07 05:59:34;;;;;;;17.13;10.90;;;;;;;;;;4979352;28;20050;-68
2022/12/07 06:02:06;;;;;;;18.45;11.70;;;;;;;;;;4980594;28;20058;-68
2022/12/07 06:04:39;;;;;;;21.50;11.73;;;;;;;;;;4996318;28;20538;-68
2022/12/07 06:07:06;;;;;;;20.38;12.10;;;;;;;;;;4980415;28;20050;-68
2022/12/07 06:09:32;;;;;;;21.15;10.80;;;;;;;;;;4979036;28;20097;-68
2022/12/07 06:14:42;;;;;;;19.40;11.13;;;;;;;;;;4979392;28;20078;-69
2022/12/07 06:17:08;;;;;;;21.48;12.60;;;;;;;;;;4980055;28;20653;-69
2022/12/07 06:19:35;;;;;;;20.48;12.02;;;;;;;;;;4977923;28;20053;-69
2022/12/07 06:22:00;;;;;;;21.85;11.95;;;;;;;;;;4980005;28;20072;-69
2022/12/07 06:24:26;;;;;;;20.05;11.07;;;;;;;;;;4979491;28;20050;-69
2022/12/07 06:26:52;;;;;;;22.20;12.98;;;;;;;;;;4980162;28;20065;-69
2022/12/07 06:29:18;;;;;;;19.92;10.82;;;;;;;;;;4978530;28;20093;-69
2022/12/07 06:31:44;;;;;;;18.80;11.82;;;;;;;;;;4978208;28;20101;-69
2022/12/07 06:34:15;;;;;;;19.20;11.60;;;;;;;;;;4974831;28;20042;-69
2022/12/07 06:36:41;;;;;;;23.10;12.77;;;;;;;;;;4980817;28;20525;-69
2022/12/07 06:39:08;;;;;;;18.13;11.38;;;;;;;;;;4978584;28;20109;-70
2022/12/07 06:41:36;;;;;;;18.45;10.63;;;;;;;;;;4979803;28;20057;-69
2022/12/07 06:44:01;;;;;;;18.33;11.23;;;;;;;;;;4980233;28;20619;-70
2022/12/07 06:46:27;;;;;;;23.83;12.50;;;;;;;;;;4981065;28;20050;-69
2022/12/07 06:48:52;;;;;;;22.48;11.77;;;;;;;;;;4979703;28;20126;-69
2022/12/07 06:51:18;;;;;;;25.40;12.02;;;;;;;;;;4980860;28;20080;-69
2022/12/07 06:53:44;;;;;;;20.17;11.60;;;;;;;;;;4973944;28;20077;-69
2022/12/07 06:56:10;;;;;;;20.40;12.23;;;;;;;;;;4980116;28;20419;-69
2022/12/07 06:58:36;;;;;;;21.88;11.05;;;;;;;;;;4979096;28;20042;-70
2022/12/07 07:01:02;;;;;;;17.75;11.02;;;;;;;;;;4975933;28;20514;-69
2022/12/07 07:03:28;;;;;;;17.23;11.18;;;;;;;;;;4976551;28;20050;-69
2022/12/07 07:05:53;;;;;;;20.63;12.05;;;;;;;;;;4978746;28;20112;-70
2022/12/07 07:08:19;;;;;;;17.27;11.00;;;;;;;;;;4978005;28;20306;-69
2022/12/07 07:10:44;;;;;;;21.17;10.75;;;;;;;;;;4978964;28;20393;-70
2022/12/07 07:13:10;;;;;;;19.77;10.70;;;;;;;;;;4978542;28;20049;-69
2022/12/07 07:15:38;;;;;;;18.90;10.85;;;;;;;;;;4978084;28;20116;-70
2022/12/07 07:18:03;;;;;;;19.35;10.93;;;;;;;;;;4978471;28;20573;-69
2022/12/07 07:20:29;;;;;;;21.20;11.55;;;;;;;;;;4977882;28;20058;-70
2022/12/07 07:22:55;;;;;;;21.30;11.73;;;;;;;;;;4978193;28;20061;-69
2022/12/07 07:25:21;;;;;;;16.85;10.73;;;;;;;;;;4978111;28;20407;-70
2022/12/07 07:27:46;;;;;;;20.08;11.90;;;;;;;;;;4979623;28;20046;-70
2022/12/07 07:30:12;;;;;;;16.42;11.05;;;;;;;;;;4978619;28;20574;-69
2022/12/07 07:32:37;;;;;;;20.98;11.45;;;;;;;;;;4978848;28;20100;-69
2022/12/07 07:35:03;;;;;;;19.75;11.48;;;;;;;;;;4978160;28;20841;-69
2022/12/07 07:37:29;;;;;;;23.65;13.27;;;;;;;;;;4979155;28;20050;-69
2022/12/07 07:39:54;;;;;;;24.73;13.68;;;;;;;;;;4977701;28;20074;-69
2022/12/07 07:42:20;;;;;;;24.90;13.70;;;;;;;;;;4981530;28;20046;-69
2022/12/07 07:44:45;;;;;;;18.10;11.55;;;;;;;;;;4982164;28;20069;-69
2022/12/07 07:47:11;;;;;;;19.23;10.90;;;;;;;;;;4981770;28;20050;-69
2022/12/07 07:49:36;;;;;;;18.60;11.38;;;;;;;;;;4981498;28;20739;-70
2022/12/07 07:52:02;;;;;;;18.00;11.30;;;;;;;;;;4982297;28;20151;-69
2022/12/07 07:54:27;;;;;;;21.48;10.95;;;;;;;;;;4982335;28;20148;-69
2022/12/07 07:56:53;;;;;;;20.48;11.27;;;;;;;;;;4983013;28;20092;-69
2022/12/07 07:59:19;;;;;;;15.55;9.82;;;;;;;;;;4980947;28;20808;-69
2022/12/07 08:01:44;;;;;;;16.38;10.32;;;;;;;;;;4979548;28;20049;-69
2022/12/07 08:04:10;;;;;;;16.25;10.70;;;;;;;;;;4982438;28;20050;-69
2022/12/07 08:06:35;;;;;;;18.80;10.30;;;;;;;;;;4972485;28;20054;-69
2022/12/07 08:09:01;;;;;;;19.27;9.68;;;;;;;;;;4994919;28;20042;-69
2022/12/07 08:11:26;;;;;;;14.77;9.45;;;;;;;;;;4980489;28;20585;-69
2022/12/07 08:13:51;;;;;;;17.50;10.07;;;;;;;;;;4980679;28;20674;-69
2022/12/07 08:16:17;;;;;;;13.30;8.60;;;;;;;;;;4981262;28;20215;-68
2022/12/07 08:18:43;;;;;;;15.93;9.77;;;;;;;;;;4981391;28;20388;-69
2022/12/07 08:21:13;;;;;;;15.25;9.70;;;;;;;;;;4980710;28;20639;-69
2022/12/07 08:23:39;;;;;;;15.40;10.30;;;;;;;;;;4981347;28;20129;-69
2022/12/07 08:26:07;;;;;;;14.30;10.25;;;;;;;;;;4982018;28;20145;-69
2022/12/07 08:28:33;;;;;;;18.85;9.93;;;;;;;;;;4980919;28;20053;-69
2022/12/07 08:31:04;;;;;;;13.25;8.75;;;;;;;;;;4979565;28;20050;-70
2022/12/07 08:33:30;;;;;;;16.52;9.95;;;;;;;;;;4981803;28;20046;-69
2022/12/07 08:36:07;;;;;;;16.92;9.68;;;;;;;;;;4981282;28;20054;-70
2022/12/07 08:38:35;;;;;;;14.98;9.23;;;;;;;;;;4980318;28;20522;-70
2022/12/07 08:41:00;;;;;;;14.15;9.13;;;;;;;;;;4980823;28;20066;-69
2022/12/07 08:43:26;;;;;;;13.02;8.60;;;;;;;;;;4980835;28;20090;-69
2022/12/07 08:46:13;;;;;;;17.05;9.30;;;;;;;;;;4979565;28;20058;-69
2022/12/07 08:48:43;;;;;;;15.65;10.32;;;;;;;;;;4972519;28;20056;-69
2022/12/07 08:51:09;;;;;;;10.90;7.80;;;;;;;;;;4977787;28;20057;-70
2022/12/07 08:53:38;;;;;;;14.98;9.23;;;;;;;;;;4980500;28;20050;-70
2022/12/07 08:56:05;;;;;;;12.68;8.70;;;;;;;;;;4982296;28;20061;-70
2022/12/07 08:58:31;;;;;;;9.60;6.65;;;;;;;;;;4981523;28;20089;-69
2022/12/07 09:00:57;;;;;;;12.73;8.98;;;;;;;;;;4976662;28;20121;-69
2022/12/07 09:03:22;;;;;;;15.18;8.60;;;;;;;;;;4980573;28;20052;-69
2022/12/07 09:05:48;;;;;;;7.85;6.32;;;;;;;;;;4978756;28;20038;-70
2022/12/07 09:08:13;;;;;;;10.63;7.43;;;;;;;;;;4978622;28;21139;-70
2022/12/07 09:10:39;;;;;;;12.27;8.35;;;;;;;;;;4980786;28;20129;-69
2022/12/07 09:13:04;;;;;;;11.82;7.55;;;;;;;;;;4978996;28;20049;-69
2022/12/07 09:15:31;;;;;;;9.13;6.28;;;;;;;;;;4978976;28;20060;-70
2022/12/07 09:17:56;;;;;;;10.90;7.03;;;;;;;;;;4978733;28;20120;-70
2022/12/07 09:20:22;;;;;;;10.77;7.28;;;;;;;;;;4975982;28;20046;-69
2022/12/07 09:22:48;;;;;;;9.25;6.85;;;;;;;;;;4972792;28;20050;-70
2022/12/07 09:25:13;;;;;;;9.38;7.05;;;;;;;;;;4974183;28;20054;-69
2022/12/07 09:27:39;;;;;;;9.23;6.63;;;;;;;;;;4979670;28;20042;-69
2022/12/07 09:30:05;;;;;;;9.13;6.47;;;;;;;;;;4978700;28;20057;-69
2022/12/07 09:32:31;;;;;;;8.57;5.70;;;;;;;;;;4980272;28;20064;-69
2022/12/07 09:34:56;;;;;;;7.55;5.28;;;;;;;;;;4980250;28;20045;-69
2022/12/07 09:37:22;;;;;;;9.57;6.38;;;;;;;;;;4979266;28;20046;-70
2022/12/07 09:39:47;;;;;;;7.63;5.85;;;;;;;;;;4977913;28;20073;-71
2022/12/07 09:42:33;;;;;;;7.38;5.30;;;;;;;;;;4979163;28;20050;-71
2022/12/07 09:45:00;;;;;;;7.57;5.63;;;;;;;;;;4981294;28;20443;-70
2022/12/07 09:47:26;;;;;;;7.70;5.40;;;;;;;;;;4978393;28;20064;-70
2022/12/07 09:49:55;;;;;;;12.32;5.32;;;;;;;;;;4974244;28;20136;-70
2022/12/07 09:52:26;;;;;;;8.63;6.18;;;;;;;;;;4978176;28;20050;-70
2022/12/07 09:54:52;;;;;;;7.50;5.73;;;;;;;;;;4979341;28;20165;-70
2022/12/07 09:57:21;;;;;;;8.45;5.78;;;;;;;;;;4980053;28;20133;-70
2022/12/07 09:59:46;;;;;;;6.80;5.47;;;;;;;;;;4976987;28;20462;-70
2022/12/07 10:02:34;;;;;;;3.97;3.58;;;;;;;;;;4979254;28;20101;-69
2022/12/07 10:05:00;;;;;;;6.18;5.15;;;;;;;;;;4980223;28;20380;-70
2022/12/07 10:07:25;;;;;;;9.02;6.22;;;;;;;;;;4974030;28;20069;-70
2022/12/07 10:09:51;;;;;;;9.57;6.07;;;;;;;;;;4974736;28;20530;-70
2022/12/07 10:12:16;;;;;;;8.30;5.05;;;;;;;;;;4976144;28;20071;-69
2022/12/07 10:15:01;;;;;;;7.40;5.45;;;;;;;;;;4990057;28;20068;-70
2022/12/07 10:17:34;;;;;;;6.93;5.15;;;;;;;;;;4965475;28;20065;-68
2022/12/07 10:20:25;;;;;;;9.32;5.53;;;;;;;;;;4980221;28;20805;-68
2022/12/07 10:22:54;;;;;;;7.10;5.63;;;;;;;;;;4976698;28;20042;-68
2022/12/07 10:25:22;;;;;;;6.72;5.13;;;;;;;;;;4980109;28;20057;-67
2022/12/07 10:28:17;;;;;;;8.30;6.15;;;;;;;;;;4978908;28;20050;-68
2022/12/07 10:30:59;;;;;;;8.85;5.85;;;;;;;;;;4976622;28;20511;-70
2022/12/07 10:33:57;;;;;;;8.82;5.78;;;;;;;;;;4977482;28;20161;-69
2022/12/07 10:36:32;;;;;;;6.25;4.35;;;;;;;;;;4977193;28;20053;-69
2022/12/07 10:39:11;;;;;;;7.28;4.50;;;;;;;;;;4978194;28;20057;-69
2022/12/07 10:41:53;;;;;;;7.18;5.25;;;;;;;;;;4978708;28;20411;-70
2022/12/07 10:44:24;;;;;;;6.18;5.25;;;;;;;;;;4978002;28;20052;-69
2022/12/07 10:47:18;;;;;;;7.63;5.50;;;;;;;;;;4979710;28;20046;-70
2022/12/07 10:50:00;;;;;;;7.35;4.65;;;;;;;;;;4950115;28;20042;-70
2022/12/07 10:52:55;;;;;;;7.85;5.28;;;;;;;;;;4978434;28;20091;-69
2022/12/07 10:55:57;;;;;;;5.85;4.55;;;;;;;;;;4978169;28;20160;-69
2022/12/07 10:59:04;;;;;;;8.55;5.60;;;;;;;;;;4954359;28;20054;-69
2022/12/07 11:01:51;;;;;;;7.28;5.70;;;;;;;;;;4893696;29;20497;-70
2022/12/07 11:04:38;;;;;;;7.43;5.78;;;;;;;;;;4897127;29;20056;-70
2022/12/07 11:07:16;;;;;;;7.28;5.53;;;;;;;;;;4955906;28;20114;-69
2022/12/07 11:09:57;;;;;;;9.75;6.43;;;;;;;;;;4977764;28;20047;-69
2022/12/07 11:12:43;;;;;;;7.22;5.38;;;;;;;;;;4978446;28;20054;-69
2022/12/07 11:15:18;;;;;;;7.35;5.35;;;;;;;;;;4978433;28;20050;-69
2022/12/07 11:18:30;;;;;;;7.25;4.82;;;;;;;;;;4980428;28;20043;-69
2022/12/07 11:21:07;;;;;;;8.73;6.20;;;;;;;;;;4943270;28;20068;-69
2022/12/07 11:23:45;;;;;;;6.82;4.82;;;;;;;;;;4981011;28;20057;-70
2022/12/07 11:26:31;;;;;;;8.82;6.47;;;;;;;;;;4996761;28;20046;-69
2022/12/07 11:29:15;;;;;;;7.00;5.22;;;;;;;;;;4981810;28;20689;-69
2022/12/07 11:32:19;;;;;;;7.50;5.25;;;;;;;;;;4982214;28;20058;-70
2022/12/07 11:35:15;;;;;;;6.65;5.45;;;;;;;;;;4983852;28;20153;-70
2022/12/07 11:37:41;;;;;;;8.07;5.20;;;;;;;;;;4983600;28;20088;-70
2022/12/07 11:40:24;;;;;;;7.70;5.32;;;;;;;;;;4982946;28;20442;-69
2022/12/07 11:42:56;;;;;;;8.10;4.80;;;;;;;;;;4977714;28;20046;-69
2022/12/07 11:45:27;;;;;;;7.78;5.18;;;;;;;;;;4981485;28;20050;-70
2022/12/07 11:48:04;;;;;;;4.50;3.42;;;;;;;;;;4982087;28;20042;-69
2022/12/07 11:50:38;;;;;;;6.13;5.25;;;;;;;;;;4980364;28;20065;-70
2022/12/07 11:53:17;;;;;;;4.07;3.67;;;;;;;;;;4995530;28;20388;-69
2022/12/07 11:56:03;;;;;;;5.07;4.38;;;;;;;;;;4980256;28;20336;-69
2022/12/07 11:58:49;;;;;;;5.47;4.60;;;;;;;;;;4981094;28;20165;-69
2022/12/07 12:01:44;;;;;;;7.25;5.50;;;;;;;;;;4980193;28;20043;-70
2022/12/07 12:04:09;;;;;;;5.85;4.15;;;;;;;;;;4979769;28;20085;-69
2022/12/07 12:06:36;;;;;;;8.10;4.50;;;;;;;;;;4980887;28;20145;-69
2022/12/07 12:09:35;;;;;;;4.82;3.95;;;;;;;;;;4980077;28;20042;-70
2022/12/07 12:12:16;;;;;;;3.60;3.17;;;;;;;;;;4977009;28;20085;-69
2022/12/07 12:14:55;;;;;;;9.07;4.75;;;;;;;;;;4981969;28;20132;-69
2022/12/07 12:17:33;;;;;;;4.22;3.58;;;;;;;;;;4981208;28;20423;-69
2022/12/07 12:20:17;;;;;;;6.40;4.28;;;;;;;;;;4980394;28;20085;-70
2022/12/07 12:22:52;;;;;;;6.22;4.47;;;;;;;;;;4979760;28;20053;-70
2022/12/07 12:25:43;;;;;;;3.83;3.42;;;;;;;;;;4982426;28;20050;-69
2022/12/07 12:28:21;;;;;;;3.83;2.70;;;;;;;;;;4957298;28;20046;-69
2022/12/07 12:31:05;;;;;;;7.53;4.80;;;;;;;;;;4982047;28;20039;-65
2022/12/07 12:33:32;;;;;;;9.80;6.22;;;;;;;;;;4978000;28;20058;-65
2022/12/07 12:36:15;;;;;;;7.82;5.55;;;;;;;;;;4977949;28;20054;-67
2022/12/07 12:39:06;;;;;;;6.50;5.35;;;;;;;;;;4975993;28;20589;-68
2022/12/07 12:41:38;;;;;;;6.00;4.60;;;;;;;;;;4977472;28;20720;-75
2022/12/07 12:44:15;;;;;;;6.00;4.97;;;;;;;;;;4979100;28;20683;-68
2022/12/07 12:46:55;;;;;;;7.90;5.05;;;;;;;;;;4978019;28;20073;-69
2022/12/07 12:49:21;;;;;;;9.07;5.70;;;;;;;;;;4975673;28;20057;-68
2022/12/07 12:52:08;;;;;;;8.07;5.78;;;;;;;;;;4989876;28;20046;-69
2022/12/07 12:54:36;;;;;;;6.72;5.22;;;;;;;;;;4980504;28;20590;-68
2022/12/07 12:57:12;;;;;;;6.05;4.90;;;;;;;;;;4979850;28;20089;-68
2022/12/07 12:59:47;;;;;;;7.47;5.35;;;;;;;;;;4977666;28;20056;-69
2022/12/07 13:02:24;;;;;;;9.60;5.15;;;;;;;;;;4979525;28;20042;-68
2022/12/07 13:05:09;;;;;;;8.23;6.03;;;;;;;;;;4980226;28;20515;-68
2022/12/07 13:07:47;;;;;;;8.13;5.78;;;;;;;;;;4977596;28;20049;-69
2022/12/07 13:10:45;;;;;;;8.23;5.93;;;;;;;;;;4978448;28;20052;-69
2022/12/07 13:13:11;;;;;;;6.85;4.90;;;;;;;;;;4976960;28;20121;-69
2022/12/07 13:15:48;;;;;;;6.85;5.25;;;;;;;;;;4981699;28;20725;-68
2022/12/07 13:18:32;;;;;;;8.73;6.07;;;;;;;;;;4979668;28;20105;-68
2022/12/07 13:20:59;;;;;;;7.95;4.97;;;;;;;;;;4980408;28;20455;-68
2022/12/07 13:23:36;;;;;;;7.15;5.53;;;;;;;;;;4981401;28;20113;-68
2022/12/07 13:26:23;;;;;;;11.45;5.95;;;;;;;;;;4981952;28;20046;-68
2022/12/07 13:29:04;;;;;;;9.52;6.10;;;;;;;;;;4980379;28;20042;-68
2022/12/07 13:31:41;;;;;;;8.23;5.45;;;;;;;;;;4980575;28;20111;-68
2022/12/07 13:34:30;;;;;;;6.53;5.18;;;;;;;;;;4963871;28;20055;-69
2022/12/07 13:36:56;;;;;;;6.70;5.35;;;;;;;;;;4982064;28;20038;-69
2022/12/07 13:39:25;;;;;;;6.90;5.22;;;;;;;;;;4980016;28;20105;-69
2022/12/07 13:41:53;;;;;;;7.50;5.93;;;;;;;;;;4980150;28;20042;-69
2022/12/07 13:44:19;;;;;;;7.80;5.65;;;;;;;;;;4982000;28;20162;-69
2022/12/07 13:47:16;;;;;;;7.93;5.95;;;;;;;;;;4982040;28;20050;-69
2022/12/07 13:49:53;;;;;;;7.45;5.97;;;;;;;;;;4995139;28;20041;-69
2022/12/07 13:52:27;;;;;;;8.27;6.25;;;;;;;;;;4979632;28;20049;-68
2022/12/07 13:54:55;;;;;;;7.78;5.78;;;;;;;;;;4981226;28;20046;-69
2022/12/07 13:57:22;;;;;;;8.70;5.82;;;;;;;;;;4981377;28;21000;-69
2022/12/07 13:59:47;;;;;;;9.27;6.07;;;;;;;;;;4980573;28;20074;-69
2022/12/07 14:02:25;;;;;;;8.82;5.60;;;;;;;;;;4979330;28;20065;-69
2022/12/07 14:04:51;;;;;;;7.35;5.68;;;;;;;;;;4973470;28;20100;-69
2022/12/07 14:07:21;;;;;;;10.25;7.30;;;;;;;;;;4981668;28;20144;-69
2022/12/07 14:09:57;;;;;;;7.93;5.75;;;;;;;;;;4980170;28;20050;-70
2022/12/07 14:12:24;;;;;;;8.32;6.07;;;;;;;;;;4979706;28;20050;-69
2022/12/07 14:14:51;;;;;;;6.47;4.53;;;;;;;;;;4981168;28;20104;-69
2022/12/07 14:17:22;;;;;;;10.80;7.05;;;;;;;;;;4981368;28;20049;-69
2022/12/07 14:19:49;;;;;;;10.20;7.05;;;;;;;;;;4980078;28;20030;-69
2022/12/07 14:22:22;;;;;;;12.95;7.07;;;;;;;;;;4980820;28;21027;-69
2022/12/07 14:24:47;;;;;;;10.05;6.35;;;;;;;;;;4979662;28;20462;-69
2022/12/07 14:27:25;;;;;;;12.80;7.05;;;;;;;;;;4980856;28;20137;-69
2022/12/07 14:29:51;;;;;;;8.93;6.90;;;;;;;;;;4979896;28;20069;-69
2022/12/07 14:32:28;;;;;;;12.32;7.15;;;;;;;;;;4979794;28;20058;-69
2022/12/07 14:35:00;;;;;;;10.73;7.13;;;;;;;;;;4980153;28;20057;-68
2022/12/07 14:37:26;;;;;;;10.65;7.00;;;;;;;;;;4980893;28;20050;-69
2022/12/07 14:39:52;;;;;;;9.38;6.30;;;;;;;;;;4979827;28;20039;-69
2022/12/07 14:42:18;;;;;;;9.95;6.80;;;;;;;;;;4980775;28;20400;-69
2022/12/07 14:44:43;;;;;;;7.82;5.88;;;;;;;;;;4980871;28;20061;-69
2022/12/07 14:47:10;;;;;;;10.65;6.55;;;;;;;;;;4978776;28;20046;-69
2022/12/07 14:49:36;;;;;;;10.07;6.65;;;;;;;;;;4973814;28;20053;-69
2022/12/07 14:52:01;;;;;;;8.75;6.13;;;;;;;;;;4978604;28;20054;-69
2022/12/07 14:54:30;;;;;;;9.45;6.53;;;;;;;;;;4978745;28;21072;-69
2022/12/07 14:56:56;;;;;;;10.35;6.60;;;;;;;;;;4978290;28;20448;-69
2022/12/07 14:59:21;;;;;;;11.00;6.13;;;;;;;;;;4978391;28;20050;-69